createdAt,value
2022-08-26T00:02:20.561Z,28.85
2022-08-26T00:04:49.518Z,28.83
2022-08-26T00:07:18.985Z,28.84
2022-08-26T00:09:47.605Z,28.82
2022-08-26T00:12:17.697Z,28.83
2022-08-26T00:14:46.427Z,28.83
2022-08-26T00:17:15.070Z,28.82
2022-08-26T00:19:43.856Z,28.82
2022-08-26T00:22:12.861Z,28.82
2022-08-26T00:24:48.898Z,28.82
2022-08-26T00:27:19.084Z,28.81
2022-08-26T00:29:49.487Z,28.82
2022-08-26T00:32:19.327Z,28.82
2022-08-26T00:34:48.015Z,28.78
2022-08-26T00:37:16.714Z,28.74
2022-08-26T00:39:45.688Z,28.76
2022-08-26T00:42:14.237Z,28.72
2022-08-26T00:44:46.097Z,28.68
2022-08-26T00:47:21.711Z,28.72
2022-08-26T00:49:51.733Z,28.74
2022-08-26T00:52:22.994Z,28.76
2022-08-26T00:54:58.982Z,28.77
2022-08-26T00:57:28.801Z,28.79
2022-08-26T01:00:01.552Z,28.80
2022-08-26T01:02:32.283Z,28.80
2022-08-26T01:05:04.013Z,28.80
2022-08-26T01:07:34.844Z,28.81
2022-08-26T01:10:07.662Z,28.82
2022-08-26T01:12:42.070Z,28.82
2022-08-26T01:15:17.715Z,28.81
2022-08-26T01:17:46.412Z,28.81
2022-08-26T01:20:31.689Z,28.82
2022-08-26T01:23:04.196Z,28.81
2022-08-26T01:25:35.156Z,28.81
2022-08-26T01:28:23.052Z,28.82
2022-08-26T01:30:54.263Z,28.80
2022-08-26T01:33:29.109Z,28.81
2022-08-26T01:35:58.020Z,28.80
2022-08-26T01:38:28.985Z,28.80
2022-08-26T01:41:01.291Z,28.81
2022-08-26T01:43:32.703Z,28.81
2022-08-26T01:46:03.122Z,28.81
2022-08-26T01:48:35.681Z,28.81
2022-08-26T01:51:06.603Z,28.81
2022-08-26T01:53:37.775Z,28.82
2022-08-26T01:56:11.925Z,28.81
2022-08-26T01:58:45.994Z,28.82
2022-08-26T02:01:14.828Z,28.81
2022-08-26T02:03:52.972Z,28.81
2022-08-26T02:06:22.242Z,28.80
2022-08-26T02:08:56.750Z,28.81
2022-08-26T02:11:25.261Z,28.80
2022-08-26T02:13:58.283Z,28.80
2022-08-26T02:16:31.423Z,28.80
2022-08-26T02:19:02.461Z,28.79
2022-08-26T02:21:33.427Z,28.79
2022-08-26T02:24:12.765Z,28.80
2022-08-26T02:26:42.054Z,28.79
2022-08-26T02:29:17.736Z,28.79
2022-08-26T02:31:48.163Z,28.78
2022-08-26T02:34:21.983Z,28.78
2022-08-26T02:36:51.128Z,28.79
2022-08-26T02:39:22.325Z,28.75
2022-08-26T02:41:51.237Z,28.70
2022-08-26T02:44:20.036Z,28.73
2022-08-26T02:46:48.795Z,28.73
2022-08-26T02:49:18.018Z,28.74
2022-08-26T02:51:46.879Z,28.75
2022-08-26T02:54:15.684Z,28.73
2022-08-26T02:56:45.782Z,28.70
2022-08-26T02:59:14.411Z,28.65
2022-08-26T03:01:45.261Z,28.68
2022-08-26T03:04:14.569Z,28.69
2022-08-26T03:06:43.826Z,28.71
2022-08-26T03:09:21.291Z,28.71
2022-08-26T03:11:55.597Z,28.72
2022-08-26T03:14:24.969Z,28.73
2022-08-26T03:16:55.058Z,28.75
2022-08-26T03:19:25.642Z,28.74
2022-08-26T03:21:58.046Z,28.75
2022-08-26T03:24:27.781Z,28.76
2022-08-26T03:26:57.924Z,28.76
2022-08-26T03:29:44.038Z,28.75
2022-08-26T03:32:18.223Z,28.75
2022-08-26T03:34:46.919Z,28.75
2022-08-26T03:37:15.976Z,28.75
2022-08-26T03:39:45.975Z,28.74
2022-08-26T03:42:16.095Z,28.74
2022-08-26T03:44:44.632Z,28.74
2022-08-26T03:47:13.178Z,28.74
2022-08-26T03:49:42.005Z,28.74
2022-08-26T03:52:10.650Z,28.69
2022-08-26T03:54:39.936Z,28.64
2022-08-26T03:57:09.288Z,28.66
2022-08-26T03:59:41.319Z,28.69
2022-08-26T04:02:11.457Z,28.69
2022-08-26T04:04:40.756Z,28.69
2022-08-26T04:07:09.261Z,28.65
2022-08-26T04:09:37.866Z,28.60
2022-08-26T04:12:09.917Z,28.63
2022-08-26T04:14:40.265Z,28.65
2022-08-26T04:17:08.852Z,28.65
2022-08-26T04:19:37.420Z,28.66
2022-08-26T04:22:06.383Z,28.67
2022-08-26T04:24:35.054Z,28.66
2022-08-26T04:27:03.854Z,28.67
2022-08-26T04:29:32.988Z,28.68
2022-08-26T04:32:04.652Z,28.68
2022-08-26T04:34:34.446Z,28.68
2022-08-26T04:37:03.244Z,28.67
2022-08-26T04:39:31.975Z,28.68
2022-08-26T04:42:01.741Z,28.69
2022-08-26T04:44:31.800Z,28.68
2022-08-26T04:47:00.400Z,28.69
2022-08-26T04:49:35.066Z,28.69
2022-08-26T04:52:05.274Z,28.67
2022-08-26T04:54:34.007Z,28.66
2022-08-26T04:57:02.740Z,28.66
2022-08-26T04:59:32.093Z,28.65
2022-08-26T05:02:03.946Z,28.65
2022-08-26T05:04:36.239Z,28.64
2022-08-26T05:07:06.437Z,28.64
2022-08-26T05:09:34.979Z,28.63
2022-08-26T05:12:03.594Z,28.62
2022-08-26T05:14:34.082Z,28.62
2022-08-26T05:17:03.300Z,28.63
2022-08-26T05:19:33.447Z,28.63
2022-08-26T05:22:03.429Z,28.63
2022-08-26T05:24:32.761Z,28.62
2022-08-26T05:27:03.245Z,28.62
2022-08-26T05:29:40.505Z,28.61
2022-08-26T05:32:08.865Z,28.56
2022-08-26T05:34:40.029Z,28.52
2022-08-26T05:37:13.800Z,28.57
2022-08-26T05:39:51.290Z,28.57
2022-08-26T05:42:20.248Z,28.59
2022-08-26T05:44:56.221Z,28.61
2022-08-26T05:47:25.123Z,28.61
2022-08-26T05:49:54.597Z,28.63
2022-08-26T05:52:26.041Z,28.64
2022-08-26T05:54:55.243Z,28.65
2022-08-26T05:57:23.726Z,28.63
2022-08-26T05:59:52.944Z,28.58
2022-08-26T06:02:21.233Z,28.56
2022-08-26T06:04:49.849Z,28.52
2022-08-26T06:07:40.555Z,28.57
2022-08-26T06:10:31.682Z,28.54
2022-08-26T06:13:09.253Z,28.51
2022-08-26T06:15:43.214Z,28.57
2022-08-26T06:18:14.642Z,28.60
2022-08-26T06:20:53.715Z,28.62
2022-08-26T06:23:46.283Z,28.64
2022-08-26T06:26:17.356Z,28.66
2022-08-26T06:28:46.509Z,28.67
2022-08-26T06:31:16.706Z,28.69
2022-08-26T06:33:46.283Z,28.71
2022-08-26T06:36:19.595Z,28.74
2022-08-26T06:38:49.139Z,28.74
2022-08-26T06:41:21.386Z,28.77
2022-08-26T06:43:50.613Z,28.76
2022-08-26T06:46:22.120Z,28.78
2022-08-26T06:48:51.157Z,28.78
2022-08-26T06:51:23.546Z,28.75
2022-08-26T06:53:55.330Z,28.71
2022-08-26T06:56:27.801Z,28.74
2022-08-26T06:58:56.734Z,28.77
2022-08-26T07:01:27.361Z,28.79
2022-08-26T07:03:58.794Z,28.79
2022-08-26T07:06:28.692Z,28.81
2022-08-26T07:09:04.123Z,28.84
2022-08-26T07:11:35.985Z,28.84
2022-08-26T07:14:06.252Z,28.86
2022-08-26T07:16:35.845Z,28.87
2022-08-26T07:19:11.176Z,28.89
2022-08-26T07:21:42.340Z,28.90
2022-08-26T07:24:11.879Z,28.92
2022-08-26T07:26:43.191Z,28.93
2022-08-26T07:29:12.811Z,28.93
2022-08-26T07:31:42.756Z,28.95
2022-08-26T07:34:13.783Z,28.95
2022-08-26T07:36:42.661Z,28.96
2022-08-26T07:39:11.210Z,28.96
2022-08-26T07:41:41.259Z,28.97
2022-08-26T07:44:11.400Z,28.98
2022-08-26T07:46:40.013Z,28.99
2022-08-26T07:49:09.189Z,28.94
2022-08-26T07:51:38.421Z,28.90
2022-08-26T07:54:07.535Z,28.93
2022-08-26T07:56:36.325Z,28.95
2022-08-26T07:59:13.856Z,28.91
2022-08-26T08:01:45.052Z,28.88
2022-08-26T08:04:14.682Z,28.92
2022-08-26T08:06:43.969Z,28.92
2022-08-26T08:09:13.691Z,28.94
2022-08-26T08:11:42.720Z,28.98
2022-08-26T08:14:13.782Z,28.99
2022-08-26T08:16:42.580Z,29.00
2022-08-26T08:19:16.180Z,29.02
2022-08-26T08:21:44.895Z,28.98
2022-08-26T08:24:13.622Z,28.92
2022-08-26T08:26:42.525Z,28.95
2022-08-26T08:29:10.953Z,28.93
2022-08-26T08:31:58.465Z,28.88
2022-08-26T08:34:29.381Z,28.92
2022-08-26T08:36:58.431Z,28.95
2022-08-26T08:39:27.591Z,28.98
2022-08-26T08:42:16.239Z,29.02
2022-08-26T08:44:51.941Z,29.02
2022-08-26T08:47:30.918Z,29.03
2022-08-26T08:50:04.459Z,29.05
2022-08-26T08:52:36.905Z,29.06
2022-08-26T08:55:11.055Z,29.06
2022-08-26T08:57:53.654Z,29.07
2022-08-26T09:00:30.403Z,29.07
2022-08-26T09:03:05.103Z,29.09
2022-08-26T09:05:40.494Z,29.09
2022-08-26T09:08:13.007Z,29.11
2022-08-26T09:10:45.105Z,29.11
2022-08-26T09:13:25.280Z,29.12
2022-08-26T09:16:04.437Z,29.13
2022-08-26T09:18:52.416Z,29.13
2022-08-26T09:21:23.811Z,29.12
2022-08-26T09:23:55.833Z,29.13
2022-08-26T09:26:30.635Z,29.14
2022-08-26T09:29:02.585Z,29.14
2022-08-26T09:31:34.272Z,29.16
2022-08-26T09:34:17.341Z,29.17
2022-08-26T09:36:49.150Z,29.16
2022-08-26T09:39:30.854Z,29.19
2022-08-26T09:42:16.687Z,29.17
2022-08-26T09:44:55.999Z,29.18
2022-08-26T09:47:30.374Z,29.17
2022-08-26T09:50:12.553Z,29.19
2022-08-26T09:52:42.746Z,29.18
2022-08-26T09:55:17.311Z,29.19
2022-08-26T09:57:48.657Z,29.19
2022-08-26T10:00:30.830Z,29.21
2022-08-26T10:03:01.216Z,29.19
2022-08-26T10:05:40.138Z,29.21
2022-08-26T10:08:21.280Z,29.15
2022-08-26T10:10:53.444Z,29.11
2022-08-26T10:13:28.011Z,29.13
2022-08-26T10:16:05.582Z,29.15
2022-08-26T10:18:38.626Z,29.15
2022-08-26T10:21:37.052Z,29.15
2022-08-26T10:24:08.083Z,29.17
2022-08-26T10:26:46.172Z,29.18
2022-08-26T10:29:20.076Z,29.19
2022-08-26T10:31:58.777Z,29.19
2022-08-26T10:34:32.852Z,29.20
2022-08-26T10:37:13.857Z,29.22
2022-08-26T10:39:51.973Z,29.21
2022-08-26T10:42:33.273Z,29.23
2022-08-26T10:45:11.886Z,29.22
2022-08-26T10:47:45.823Z,29.17
2022-08-26T10:50:14.687Z,29.14
2022-08-26T10:52:59.035Z,29.29
2022-08-26T10:55:37.286Z,29.48
2022-08-26T10:58:29.322Z,29.51
2022-08-26T11:01:23.832Z,29.48
2022-08-26T11:04:00.489Z,29.42
2022-08-26T11:06:31.468Z,29.40
2022-08-26T11:09:03.830Z,29.38
2022-08-26T11:11:50.180Z,29.37
2022-08-26T11:14:41.994Z,29.35
2022-08-26T11:17:56.638Z,29.32
2022-08-26T11:20:35.962Z,29.28
2022-08-26T11:23:40.487Z,29.27
2022-08-26T11:26:35.490Z,29.24
2022-08-26T11:29:12.958Z,29.21
2022-08-26T11:31:57.042Z,29.24
2022-08-26T11:34:56.410Z,29.24
2022-08-26T11:37:51.250Z,29.21
2022-08-26T11:40:23.056Z,29.22
2022-08-26T11:42:59.766Z,29.20
2022-08-26T11:45:35.379Z,29.22
2022-08-26T11:48:16.886Z,29.24
2022-08-26T11:50:55.297Z,29.23
2022-08-26T11:53:26.107Z,29.20
2022-08-26T11:55:58.311Z,29.21
2022-08-26T11:58:30.268Z,29.20
2022-08-26T12:01:03.514Z,29.20
2022-08-26T12:03:38.012Z,29.19
2022-08-26T12:06:14.221Z,29.17
2022-08-26T12:08:45.506Z,29.19
2022-08-26T12:11:23.176Z,29.20
2022-08-26T12:13:58.374Z,29.22
2022-08-26T12:16:29.607Z,29.23
2022-08-26T12:18:59.142Z,29.25
2022-08-26T12:21:34.613Z,29.28
2022-08-26T12:24:04.949Z,29.27
2022-08-26T12:26:36.224Z,29.28
2022-08-26T12:29:20.381Z,29.26
2022-08-26T12:32:08.895Z,29.26
2022-08-26T12:34:37.675Z,29.25
2022-08-26T12:37:07.170Z,29.23
2022-08-26T12:39:38.442Z,29.22
2022-08-26T12:42:22.974Z,29.22
2022-08-26T12:45:00.673Z,29.21
2022-08-26T12:47:42.223Z,29.20
2022-08-26T12:50:18.526Z,29.19
2022-08-26T12:52:57.645Z,29.18
2022-08-26T12:55:36.633Z,29.17
2022-08-26T12:58:24.728Z,29.17
2022-08-26T13:00:56.833Z,29.14
2022-08-26T13:03:32.765Z,29.13
2022-08-26T13:06:16.456Z,29.15
2022-08-26T13:08:46.596Z,29.13
2022-08-26T13:11:20.650Z,29.14
2022-08-26T13:13:51.874Z,29.13
2022-08-26T13:16:24.577Z,29.13
2022-08-26T13:18:55.245Z,29.13
2022-08-26T13:21:26.371Z,29.12
2022-08-26T13:23:55.930Z,29.12
2022-08-26T13:26:24.732Z,29.12
2022-08-26T13:29:01.640Z,29.11
2022-08-26T13:31:34.740Z,29.10
2022-08-26T13:34:04.391Z,29.11
2022-08-26T13:36:32.992Z,29.11
2022-08-26T13:39:01.611Z,29.10
2022-08-26T13:41:32.016Z,29.09
2022-08-26T13:44:01.043Z,29.09
2022-08-26T13:46:29.825Z,29.02
2022-08-26T13:48:59.876Z,28.91
2022-08-26T13:51:31.433Z,28.89
2022-08-26T13:54:00.566Z,28.82
2022-08-26T13:56:30.932Z,28.76
2022-08-26T13:59:01.359Z,28.69
2022-08-26T14:01:31.730Z,28.61
2022-08-26T14:04:02.842Z,28.57
2022-08-26T14:06:32.124Z,28.53
2022-08-26T14:09:00.548Z,28.50
2022-08-26T14:11:30.332Z,28.46
2022-08-26T14:14:15.272Z,28.43
2022-08-26T14:16:58.862Z,28.39
2022-08-26T14:19:51.634Z,28.32
2022-08-26T14:22:23.277Z,28.31
2022-08-26T14:24:51.897Z,28.29
2022-08-26T14:27:20.475Z,28.29
2022-08-26T14:29:49.103Z,28.27
2022-08-26T14:32:23.480Z,28.24
2022-08-26T14:34:53.711Z,28.22
2022-08-26T14:37:22.821Z,28.21
2022-08-26T14:39:51.540Z,28.12
2022-08-26T14:42:24.540Z,28.13
2022-08-26T14:44:56.956Z,28.17
2022-08-26T14:47:25.921Z,28.22
2022-08-26T14:49:55.778Z,28.30
2022-08-26T14:52:24.483Z,28.38
2022-08-26T14:54:54.821Z,28.46
2022-08-26T14:57:24.422Z,28.51
2022-08-26T14:59:53.212Z,28.59
2022-08-26T15:02:32.683Z,28.66
2022-08-26T15:05:04.513Z,28.74
2022-08-26T15:07:33.239Z,28.80
2022-08-26T15:10:02.043Z,28.87
2022-08-26T15:12:31.502Z,28.88
2022-08-26T15:15:00.351Z,28.91
2022-08-26T15:17:29.248Z,28.94
2022-08-26T15:19:57.755Z,28.95
2022-08-26T15:22:28.524Z,28.95
2022-08-26T15:24:59.198Z,28.96
2022-08-26T15:27:27.825Z,28.96
2022-08-26T15:29:56.367Z,28.98
2022-08-26T15:32:24.999Z,28.96
2022-08-26T15:34:53.496Z,28.96
2022-08-26T15:37:21.987Z,28.98
2022-08-26T15:39:52.225Z,28.98
2022-08-26T15:42:21.651Z,28.99
2022-08-26T15:44:50.547Z,28.99
2022-08-26T15:47:19.294Z,28.99
2022-08-26T15:50:09.288Z,28.99
2022-08-26T15:52:39.320Z,29.01
2022-08-26T15:55:10.635Z,29.01
2022-08-26T15:57:39.222Z,29.00
2022-08-26T16:00:11.868Z,29.01
2022-08-26T16:02:40.370Z,28.98
2022-08-26T16:05:09.716Z,28.93
2022-08-26T16:07:38.304Z,28.92
2022-08-26T16:10:09.312Z,28.93
2022-08-26T16:12:38.102Z,28.95
2022-08-26T16:15:08.049Z,28.95
2022-08-26T16:17:36.609Z,28.98
2022-08-26T16:20:06.182Z,28.98
2022-08-26T16:22:35.039Z,28.98
2022-08-26T16:25:03.598Z,28.99
2022-08-26T16:27:33.638Z,28.98
2022-08-26T16:30:02.276Z,29.00
2022-08-26T16:32:31.995Z,29.02
2022-08-26T16:35:00.644Z,29.03
2022-08-26T16:37:29.193Z,29.04
2022-08-26T16:39:57.814Z,29.07
2022-08-26T16:42:26.373Z,29.09
2022-08-26T16:44:56.321Z,29.14
2022-08-26T16:47:24.902Z,29.16
2022-08-26T16:49:54.234Z,29.16
2022-08-26T16:52:22.788Z,29.16
2022-08-26T16:54:53.461Z,29.16
2022-08-26T16:57:22.147Z,29.16
2022-08-26T16:59:51.178Z,29.15
2022-08-26T17:02:21.225Z,29.16
2022-08-26T17:04:49.706Z,29.17
2022-08-26T17:07:19.119Z,29.15
2022-08-26T17:09:47.823Z,29.15
2022-08-26T17:12:16.644Z,29.14
2022-08-26T17:14:45.794Z,29.15
2022-08-26T17:17:14.415Z,29.15
2022-08-26T17:19:47.166Z,29.15
2022-08-26T17:22:16.614Z,29.15
2022-08-26T17:24:45.265Z,29.12
2022-08-26T17:27:14.089Z,29.11
2022-08-26T17:29:49.947Z,29.11
2022-08-26T17:32:18.588Z,29.09
2022-08-26T17:34:48.485Z,29.09
2022-08-26T17:37:17.542Z,29.09
2022-08-26T17:39:45.815Z,29.02
2022-08-26T17:42:14.411Z,29.04
2022-08-26T17:44:43.073Z,29.05
2022-08-26T17:47:11.684Z,29.05
2022-08-26T17:49:40.733Z,29.04
2022-08-26T17:52:11.730Z,29.06
2022-08-26T17:54:40.419Z,29.06
2022-08-26T17:57:10.772Z,29.03
2022-08-26T17:59:40.971Z,29.02
2022-08-26T18:02:09.645Z,29.03
2022-08-26T18:04:38.230Z,29.02
2022-08-26T18:07:07.149Z,29.03
2022-08-26T18:09:37.158Z,28.95
2022-08-26T18:12:06.617Z,28.98
2022-08-26T18:14:35.467Z,29.08
2022-08-26T18:17:04.394Z,29.12
2022-08-26T18:19:32.860Z,29.10
2022-08-26T18:22:01.527Z,29.14
2022-08-26T18:24:30.527Z,29.22
2022-08-26T18:27:00.386Z,29.21
2022-08-26T18:29:29.277Z,29.22
2022-08-26T18:31:57.860Z,29.26
2022-08-26T18:34:31.687Z,29.25
2022-08-26T18:37:00.691Z,29.25
2022-08-26T18:39:29.254Z,29.27
2022-08-26T18:41:57.897Z,29.27
2022-08-26T18:44:27.895Z,29.28
2022-08-26T18:46:56.419Z,29.24
2022-08-26T18:49:25.032Z,29.25
2022-08-26T18:51:53.630Z,29.28
2022-08-26T18:54:22.580Z,29.27
2022-08-26T18:56:51.198Z,29.29
2022-08-26T18:59:19.952Z,29.32
2022-08-26T19:01:59.832Z,29.32
2022-08-26T19:04:28.672Z,29.32
2022-08-26T19:06:57.275Z,29.28
2022-08-26T19:09:26.499Z,29.25
2022-08-26T19:14:31.272Z,29.19
2022-08-26T19:17:01.617Z,29.16
2022-08-26T19:19:31.915Z,29.14
2022-08-26T19:22:00.706Z,29.10
2022-08-26T19:24:29.725Z,29.07
2022-08-26T19:27:00.061Z,29.05
2022-08-26T19:29:31.575Z,29.03
2022-08-26T19:32:01.997Z,29.01
2022-08-26T19:34:30.774Z,28.99
2022-08-26T19:36:59.302Z,28.96
2022-08-26T19:39:28.087Z,28.96
2022-08-26T19:41:56.898Z,28.92
2022-08-26T19:44:42.798Z,28.93
2022-08-26T19:47:13.507Z,28.91
2022-08-26T19:49:42.098Z,28.89
2022-08-26T19:52:11.983Z,28.87
2022-08-26T19:54:41.116Z,28.88
2022-08-26T19:57:09.726Z,28.87
2022-08-26T19:59:40.390Z,28.87
2022-08-26T20:02:11.058Z,28.86
2022-08-26T20:04:41.973Z,28.85
2022-08-26T20:07:14.194Z,28.85
2022-08-26T20:09:47.359Z,28.85
2022-08-26T20:12:17.507Z,28.83
2022-08-26T20:14:46.505Z,28.82
2022-08-26T20:17:17.197Z,28.79
2022-08-26T20:20:04.611Z,28.78
2022-08-26T20:22:33.680Z,28.76
2022-08-26T20:25:01.997Z,28.68
2022-08-26T20:27:38.375Z,28.68
2022-08-26T20:30:09.877Z,28.71
2022-08-26T20:32:39.548Z,28.73
2022-08-26T20:35:13.859Z,28.76
2022-08-26T20:37:42.723Z,28.78
2022-08-26T20:40:12.214Z,28.72
2022-08-26T20:42:40.884Z,28.75
2022-08-26T20:45:10.801Z,28.78
2022-08-26T20:47:39.412Z,28.78
2022-08-26T20:50:10.300Z,28.78
2022-08-26T20:52:38.880Z,28.79
2022-08-26T20:55:08.237Z,28.78
2022-08-26T20:57:37.475Z,28.79
2022-08-26T21:00:07.509Z,28.78
2022-08-26T21:02:37.186Z,28.80
2022-08-26T21:05:06.570Z,28.81
2022-08-26T21:07:37.519Z,28.81
2022-08-26T21:10:06.580Z,28.81
2022-08-26T21:12:35.622Z,28.80
2022-08-26T21:15:03.967Z,28.72
2022-08-26T21:17:32.746Z,28.71
2022-08-26T21:20:01.345Z,28.73
2022-08-26T21:22:31.572Z,28.72
2022-08-26T21:25:01.664Z,28.72
2022-08-26T21:27:30.359Z,28.72
2022-08-26T21:29:58.942Z,28.72
2022-08-26T21:32:27.629Z,28.75
2022-08-26T21:34:57.092Z,28.78
2022-08-26T21:37:28.032Z,28.77
2022-08-26T21:39:58.068Z,28.78
2022-08-26T21:42:28.069Z,28.79
2022-08-26T21:44:56.672Z,28.79
2022-08-26T21:47:25.640Z,28.80
2022-08-26T21:49:55.167Z,28.79
2022-08-26T21:52:23.656Z,28.79
2022-08-26T21:54:52.253Z,28.79
2022-08-26T21:57:20.949Z,28.80
2022-08-26T21:59:51.415Z,28.79
2022-08-26T22:02:20.418Z,28.80
2022-08-26T22:04:49.473Z,28.79
2022-08-26T22:07:19.249Z,28.68
2022-08-26T22:10:50.636Z,28.69
2022-08-26T22:13:20.543Z,28.70
2022-08-26T22:15:49.932Z,28.66
2022-08-26T22:18:21.512Z,28.63
2022-08-26T22:20:52.801Z,28.59
2022-08-26T22:23:21.951Z,28.60
2022-08-26T22:25:52.215Z,28.59
2022-08-26T22:28:21.128Z,28.54
2022-08-26T22:30:49.838Z,28.52
2022-08-26T22:33:18.817Z,28.51
2022-08-26T22:35:48.111Z,28.44
2022-08-26T22:38:17.069Z,28.47
2022-08-26T22:40:46.282Z,28.40
2022-08-26T22:43:16.567Z,28.40
2022-08-26T22:45:47.726Z,28.42
2022-08-26T22:48:22.406Z,28.44
2022-08-26T22:50:52.211Z,28.44
2022-08-26T22:53:20.790Z,28.43
2022-08-26T22:55:49.926Z,28.45
2022-08-26T22:58:20.614Z,28.47
2022-08-26T23:00:56.719Z,28.48
2022-08-26T23:03:28.721Z,28.51
2022-08-26T23:05:57.367Z,28.51
2022-08-26T23:08:27.523Z,28.49
2022-08-26T23:10:56.225Z,28.49
2022-08-26T23:13:26.160Z,28.48
2022-08-26T23:16:02.495Z,28.46
2022-08-26T23:18:31.327Z,28.43
2022-08-26T23:20:59.912Z,28.43
2022-08-26T23:23:28.813Z,28.40
2022-08-26T23:25:57.365Z,28.38
2022-08-26T23:28:27.520Z,28.38
2022-08-26T23:30:56.004Z,28.37
2022-08-26T23:33:44.635Z,28.37
2022-08-26T23:36:17.040Z,28.33
2022-08-26T23:38:48.569Z,28.32
2022-08-26T23:41:22.498Z,28.31
2022-08-26T23:43:52.954Z,28.32
2022-08-26T23:46:21.873Z,28.32
2022-08-26T23:48:50.393Z,28.31
2022-08-26T23:51:57.547Z,28.28
2022-08-26T23:54:26.501Z,28.27
2022-08-26T23:56:54.858Z,28.19
2022-08-26T23:59:24.971Z,28.20
